createdAt,value
2018-03-31T00:02:16.148Z,100438.30
2018-03-31T00:04:43.628Z,100435.67
2018-03-31T00:07:10.677Z,100443.57
2018-03-31T00:09:38.249Z,100442.11
2018-03-31T00:12:05.973Z,100447.31
2018-03-31T00:14:33.479Z,100447.80
2018-03-31T00:17:01.004Z,100443.43
2018-03-31T00:19:28.750Z,100442.45
2018-03-31T00:21:55.830Z,100444.67
2018-03-31T00:24:22.873Z,100440.96
2018-03-31T00:26:49.984Z,100446.99
2018-03-31T00:29:17.940Z,100447.97
2018-03-31T00:31:44.941Z,100447.61
2018-03-31T00:34:12.264Z,100449.77
2018-03-31T00:36:39.319Z,100443.95
2018-03-31T00:39:06.349Z,100439.71
2018-03-31T00:41:33.349Z,100440.80
2018-03-31T00:44:00.443Z,100436.44
2018-03-31T00:46:27.490Z,100437.41
2018-03-31T00:48:54.683Z,100432.42
2018-03-31T00:51:22.647Z,100443.06
2018-03-31T00:53:49.799Z,100439.11
2018-03-31T00:56:16.882Z,100437.17
2018-03-31T00:58:44.937Z,100440.84
2018-03-31T01:01:13.049Z,100447.53
2018-03-31T01:03:40.853Z,100443.79
2018-03-31T01:06:08.067Z,100434.70
2018-03-31T01:08:35.895Z,100430.62
2018-03-31T01:11:02.987Z,100430.13
2018-03-31T01:13:30.132Z,100427.08
2018-03-31T01:15:57.366Z,100418.28
2018-03-31T01:18:25.288Z,100417.79
2018-03-31T01:20:52.639Z,100412.38
2018-03-31T01:23:20.152Z,100417.03
2018-03-31T01:25:47.275Z,100420.42
2018-03-31T01:28:14.317Z,100419.77
2018-03-31T01:30:42.080Z,100413.28
2018-03-31T01:33:10.380Z,100413.28
2018-03-31T01:35:37.505Z,100413.00
2018-03-31T01:38:04.562Z,100405.19
2018-03-31T01:40:31.615Z,100408.73
2018-03-31T01:42:58.726Z,100406.16
2018-03-31T01:45:25.826Z,100403.11
2018-03-31T01:47:52.964Z,100401.30
2018-03-31T01:50:21.227Z,100398.94
2018-03-31T01:52:48.316Z,100399.66
2018-03-31T01:55:16.210Z,100405.41
2018-03-31T01:57:43.311Z,100403.06
2018-03-31T02:00:10.824Z,100395.58
2018-03-31T02:02:38.583Z,100396.13
2018-03-31T02:05:05.620Z,100387.81
2018-03-31T02:07:33.259Z,100383.65
2018-03-31T02:10:00.822Z,100389.19
2018-03-31T02:12:27.891Z,100390.23
2018-03-31T02:14:55.282Z,100390.18
2018-03-31T02:17:22.856Z,100390.73
2018-03-31T02:19:50.345Z,100392.59
2018-03-31T02:22:17.359Z,100396.82
2018-03-31T02:24:45.117Z,100400.63
2018-03-31T02:27:12.221Z,100403.39
2018-03-31T02:29:40.064Z,100408.17
2018-03-31T02:32:07.107Z,100397.01
2018-03-31T02:34:34.337Z,100390.25
2018-03-31T02:37:01.399Z,100396.00
2018-03-31T02:39:28.530Z,100392.05
2018-03-31T02:41:55.568Z,100391.02
2018-03-31T02:44:22.687Z,100393.16
2018-03-31T02:46:49.730Z,100392.59
2018-03-31T02:49:16.771Z,100386.09
2018-03-31T02:51:44.364Z,100381.98
2018-03-31T02:54:11.389Z,100385.30
2018-03-31T02:56:38.479Z,100385.94
2018-03-31T02:59:06.284Z,100386.83
2018-03-31T03:01:34.101Z,100381.00
2018-03-31T03:04:01.824Z,100382.61
2018-03-31T03:06:28.936Z,100378.86
2018-03-31T03:08:56.767Z,100375.75
2018-03-31T03:11:23.998Z,100378.93
2018-03-31T03:13:51.041Z,100374.00
2018-03-31T03:16:18.094Z,100369.97
2018-03-31T03:18:45.684Z,100366.94
2018-03-31T03:21:12.984Z,100369.67
2018-03-31T03:23:40.594Z,100366.35
2018-03-31T03:26:07.666Z,100375.11
2018-03-31T03:28:34.752Z,100370.44
2018-03-31T03:31:02.580Z,100368.43
2018-03-31T03:33:29.685Z,100360.11
2018-03-31T03:35:56.733Z,100366.02
2018-03-31T03:38:23.865Z,100369.02
2018-03-31T03:40:50.980Z,100368.03
2018-03-31T03:43:18.207Z,100364.38
2018-03-31T03:45:45.421Z,100362.89
2018-03-31T03:48:12.803Z,100357.80
2018-03-31T03:50:40.876Z,100352.95
2018-03-31T03:53:07.940Z,100358.59
2018-03-31T03:55:34.995Z,100353.71
2018-03-31T03:58:02.119Z,100355.02
2018-03-31T04:00:30.013Z,100354.91
2018-03-31T04:02:57.991Z,100347.51
2018-03-31T04:05:25.219Z,100339.95
2018-03-31T04:07:52.389Z,100335.55
2018-03-31T04:10:20.311Z,100329.64
2018-03-31T04:12:47.432Z,100335.80
2018-03-31T04:15:15.156Z,100335.63
2018-03-31T04:17:44.373Z,100334.92
2018-03-31T04:20:12.281Z,100335.45
2018-03-31T04:22:39.984Z,100335.73
2018-03-31T04:25:07.267Z,100346.30
2018-03-31T04:27:34.418Z,100343.91
2018-03-31T04:30:02.181Z,100341.48
2018-03-31T04:32:29.296Z,100335.73
2018-03-31T04:34:56.433Z,100340.68
2018-03-31T04:37:23.630Z,100343.42
2018-03-31T04:39:50.749Z,100337.11
2018-03-31T04:42:17.828Z,100349.56
2018-03-31T04:44:44.979Z,100341.97
2018-03-31T04:47:12.052Z,100347.09
2018-03-31T04:49:39.893Z,100345.37
2018-03-31T04:52:07.041Z,100352.40
2018-03-31T04:54:34.141Z,100354.60
2018-03-31T04:57:01.301Z,100352.10
2018-03-31T04:59:28.916Z,100354.36
2018-03-31T05:01:56.766Z,100356.51
2018-03-31T05:04:24.734Z,100349.42
2018-03-31T05:06:51.986Z,100357.70
2018-03-31T05:09:19.733Z,100356.57
2018-03-31T05:11:46.836Z,100359.70
2018-03-31T05:14:14.008Z,100367.31
2018-03-31T05:16:41.097Z,100366.13
2018-03-31T05:19:09.125Z,100362.73
2018-03-31T05:21:36.189Z,100377.52
2018-03-31T05:24:04.116Z,100380.74
2018-03-31T05:26:31.278Z,100380.32
2018-03-31T05:28:58.834Z,100383.14
2018-03-31T05:31:26.654Z,100383.21
2018-03-31T05:33:54.117Z,100377.20
2018-03-31T05:36:21.372Z,100381.52
2018-03-31T05:38:48.558Z,100381.52
2018-03-31T05:41:16.346Z,100378.54
2018-03-31T05:43:43.683Z,100378.34
2018-03-31T05:46:10.980Z,100379.28
2018-03-31T05:48:38.001Z,100394.77
2018-03-31T05:51:06.932Z,100387.59
2018-03-31T05:53:34.234Z,100387.31
2018-03-31T05:56:02.745Z,100393.00
2018-03-31T05:58:30.497Z,100391.61
2018-03-31T06:00:58.168Z,100387.02
2018-03-31T06:03:25.865Z,100394.23
2018-03-31T06:05:52.946Z,100395.44
2018-03-31T06:08:20.836Z,100391.42
2018-03-31T06:10:48.033Z,100399.58
2018-03-31T06:13:15.187Z,100401.81
2018-03-31T06:15:42.282Z,100405.70
2018-03-31T06:18:10.228Z,100411.16
2018-03-31T06:20:37.340Z,100420.69
2018-03-31T06:23:05.270Z,100415.84
2018-03-31T06:25:32.320Z,100427.70
2018-03-31T06:27:59.480Z,100431.05
2018-03-31T06:30:27.511Z,100426.36
2018-03-31T06:32:54.593Z,100430.99
2018-03-31T06:35:21.643Z,100439.06
2018-03-31T06:37:48.680Z,100434.38
2018-03-31T06:40:16.286Z,100439.45
2018-03-31T06:42:43.848Z,100445.02
2018-03-31T06:45:11.053Z,100439.48
2018-03-31T06:47:39.133Z,100439.19
2018-03-31T06:50:06.751Z,100441.05
2018-03-31T06:52:33.934Z,100444.27
2018-03-31T06:55:01.555Z,100440.63
2018-03-31T06:57:28.644Z,100440.17
2018-03-31T06:59:56.298Z,100442.97
2018-03-31T07:02:23.302Z,100443.99
2018-03-31T07:04:50.745Z,100450.13
2018-03-31T07:07:17.737Z,100447.98
2018-03-31T07:09:45.664Z,100449.30
2018-03-31T07:12:12.665Z,100454.71
2018-03-31T07:14:39.655Z,100455.52
2018-03-31T07:17:07.329Z,100450.08
2018-03-31T07:19:34.838Z,100444.37
2018-03-31T07:22:01.824Z,100447.21
2018-03-31T07:24:29.377Z,100439.31
2018-03-31T07:26:56.365Z,100448.51
2018-03-31T07:29:24.068Z,100442.10
2018-03-31T07:31:51.061Z,100441.85
2018-03-31T07:34:18.068Z,100433.86
2018-03-31T07:36:45.459Z,100435.40
2018-03-31T07:39:12.458Z,100440.33
2018-03-31T07:41:39.477Z,100440.00
2018-03-31T07:44:06.509Z,100436.58
2018-03-31T07:46:33.535Z,100438.73
2018-03-31T07:49:00.524Z,100439.92
2018-03-31T07:51:28.312Z,100436.78
2018-03-31T07:53:55.357Z,100435.48
2018-03-31T07:56:22.352Z,100438.40
2018-03-31T07:58:49.868Z,100433.61
2018-03-31T08:01:17.645Z,100429.44
2018-03-31T08:03:45.336Z,100438.94
2018-03-31T08:06:12.341Z,100443.31
2018-03-31T08:08:39.845Z,100435.02
2018-03-31T08:11:06.804Z,100438.39
2018-03-31T08:13:33.811Z,100434.77
2018-03-31T08:16:00.848Z,100429.50
2018-03-31T08:18:28.624Z,100430.11
2018-03-31T08:20:55.654Z,100427.09
2018-03-31T08:23:23.487Z,100425.48
2018-03-31T08:25:50.506Z,100419.44
2018-03-31T08:28:17.542Z,100412.13
2018-03-31T08:30:45.322Z,100412.30
2018-03-31T08:33:13.015Z,100419.19
2018-03-31T08:35:40.005Z,100414.75
2018-03-31T08:38:07.030Z,100415.39
2018-03-31T08:40:34.069Z,100419.77
2018-03-31T08:43:01.225Z,100414.41
2018-03-31T08:45:28.216Z,100416.82
2018-03-31T08:47:55.799Z,100415.91
2018-03-31T08:50:23.594Z,100417.05
2018-03-31T08:52:50.581Z,100422.03
2018-03-31T08:55:17.609Z,100416.55
2018-03-31T08:57:44.815Z,100423.08
2018-03-31T09:00:12.419Z,100429.12
2018-03-31T09:02:40.041Z,100425.73
2018-03-31T09:05:07.062Z,100427.09
2018-03-31T09:07:34.103Z,100425.98
2018-03-31T09:10:01.130Z,100427.22
2018-03-31T09:12:28.142Z,100428.57
2018-03-31T09:14:55.229Z,100417.75
2018-03-31T09:17:22.764Z,100424.96
2018-03-31T09:19:50.465Z,100423.77
2018-03-31T09:22:17.512Z,100424.54
2018-03-31T09:24:46.099Z,100427.88
2018-03-31T09:27:14.282Z,100429.95
2018-03-31T09:29:42.124Z,100424.48
2018-03-31T09:32:09.109Z,100429.64
2018-03-31T09:34:36.096Z,100419.21
2018-03-31T09:37:03.105Z,100414.36
2018-03-31T09:39:30.109Z,100419.10
2018-03-31T09:41:57.099Z,100416.16
2018-03-31T09:44:24.291Z,100421.06
2018-03-31T09:46:51.904Z,100412.78
2018-03-31T09:49:19.279Z,100411.70
2018-03-31T09:51:46.571Z,100410.13
2018-03-31T09:54:13.629Z,100413.16
2018-03-31T09:56:40.648Z,100411.34
2018-03-31T09:59:08.057Z,100416.06
2018-03-31T10:01:35.595Z,100409.94
2018-03-31T10:04:03.320Z,100409.78
2018-03-31T10:06:30.296Z,100401.59
2018-03-31T10:08:57.302Z,100398.61
2018-03-31T10:11:24.500Z,100397.10
2018-03-31T10:13:51.494Z,100399.16
2018-03-31T10:16:19.770Z,100395.10
2018-03-31T10:18:48.664Z,100390.14
2018-03-31T10:21:15.660Z,100396.19
2018-03-31T10:23:43.516Z,100395.09
2018-03-31T10:26:10.549Z,100402.13
2018-03-31T10:28:37.575Z,100406.75
2018-03-31T10:31:05.048Z,100405.56
2018-03-31T10:33:32.049Z,100407.84
2018-03-31T10:35:59.071Z,100406.81
2018-03-31T10:38:26.088Z,100404.30
2018-03-31T10:40:53.096Z,100409.73
2018-03-31T10:43:20.101Z,100402.61
2018-03-31T10:45:47.652Z,100403.28
2018-03-31T10:48:16.019Z,100399.59
2018-03-31T10:50:44.337Z,100403.03
2018-03-31T10:53:11.804Z,100401.45
2018-03-31T10:55:39.100Z,100400.55
2018-03-31T10:58:06.105Z,100397.14
2018-03-31T11:00:33.835Z,100391.91
2018-03-31T11:03:01.606Z,100388.52
2018-03-31T11:05:28.643Z,100387.30
2018-03-31T11:07:55.653Z,100380.17
2018-03-31T11:10:22.690Z,100386.69
2018-03-31T11:12:49.771Z,100381.96
2018-03-31T11:15:16.753Z,100382.70
2018-03-31T11:17:44.395Z,100379.48
2018-03-31T11:20:11.859Z,100368.04
2018-03-31T11:22:39.603Z,100371.11
2018-03-31T11:25:06.584Z,100372.27
2018-03-31T11:27:33.560Z,100376.36
2018-03-31T11:30:01.278Z,100371.16
2018-03-31T11:32:28.261Z,100353.28
2018-03-31T11:34:55.251Z,100350.86
2018-03-31T11:37:22.272Z,100342.73
2018-03-31T11:39:49.272Z,100339.66
2018-03-31T11:42:16.938Z,100339.91
2018-03-31T11:44:44.997Z,100334.91
2018-03-31T11:47:12.001Z,100323.30
2018-03-31T11:49:39.682Z,100320.41
2018-03-31T11:52:06.720Z,100320.30
2018-03-31T11:54:34.183Z,100311.67
2018-03-31T11:57:01.181Z,100303.31
2018-03-31T11:59:28.604Z,100287.18
2018-03-31T12:01:56.061Z,100296.16
2018-03-31T12:04:23.633Z,100300.08
2018-03-31T12:06:50.861Z,100281.73
2018-03-31T12:09:17.840Z,100293.76
2018-03-31T12:11:44.876Z,100301.16
2018-03-31T12:14:11.908Z,100297.56
2018-03-31T12:16:39.708Z,100292.23
2018-03-31T12:19:07.237Z,100292.08
2018-03-31T12:21:34.220Z,100304.55
2018-03-31T12:24:01.623Z,100307.70
2018-03-31T12:26:28.612Z,100302.64
2018-03-31T12:28:55.597Z,100299.55
2018-03-31T12:31:23.100Z,100299.84
2018-03-31T12:33:50.152Z,100283.02
2018-03-31T12:36:17.842Z,100285.39
2018-03-31T12:38:44.825Z,100288.96
2018-03-31T12:41:12.580Z,100291.27
2018-03-31T12:43:39.556Z,100286.52
2018-03-31T12:46:06.552Z,100288.85
2018-03-31T12:48:33.568Z,100284.80
2018-03-31T12:51:01.692Z,100277.55
2018-03-31T12:53:29.544Z,100279.39
2018-03-31T12:55:57.265Z,100274.98
2018-03-31T12:58:25.396Z,100271.09
2018-03-31T13:00:52.992Z,100263.69
2018-03-31T13:03:20.675Z,100268.45
2018-03-31T13:05:47.675Z,100253.84
2018-03-31T13:08:14.702Z,100259.20
2018-03-31T13:10:41.707Z,100250.53
2018-03-31T13:13:08.685Z,100252.92
2018-03-31T13:15:35.667Z,100244.63
2018-03-31T13:18:03.084Z,100241.73
2018-03-31T13:20:30.580Z,100243.61
2018-03-31T13:22:58.103Z,100244.63
2018-03-31T13:25:25.087Z,100247.34
2018-03-31T13:27:52.076Z,100242.40
2018-03-31T13:30:19.618Z,100237.66
2018-03-31T13:32:46.757Z,100232.81
2018-03-31T13:35:15.266Z,100237.56
2018-03-31T13:37:42.934Z,100237.92
2018-03-31T13:40:09.922Z,100234.30
2018-03-31T13:42:37.644Z,100234.83
2018-03-31T13:45:04.644Z,100230.69
2018-03-31T13:47:32.612Z,100225.84
2018-03-31T13:50:00.243Z,100239.46
2018-03-31T13:52:27.232Z,100241.05
2018-03-31T13:54:54.898Z,100234.69
2018-03-31T13:57:21.917Z,100220.94
2018-03-31T13:59:49.549Z,100224.39
2018-03-31T14:02:16.577Z,100230.48
2018-03-31T14:04:44.003Z,100234.96
2018-03-31T14:07:11.017Z,100231.39
2018-03-31T14:09:37.992Z,100237.74
2018-03-31T14:12:05.170Z,100243.83
2018-03-31T14:14:32.181Z,100231.27
2018-03-31T14:16:59.619Z,100221.02
2018-03-31T14:19:27.104Z,100227.11
2018-03-31T14:21:54.316Z,100223.88
2018-03-31T14:24:21.928Z,100225.21
2018-03-31T14:26:49.380Z,100231.50
2018-03-31T14:29:17.588Z,100231.13
2018-03-31T14:31:44.582Z,100232.39
2018-03-31T14:34:11.576Z,100230.83
2018-03-31T14:36:39.404Z,100232.13
2018-03-31T14:39:06.383Z,100223.58
2018-03-31T14:41:33.391Z,100221.45
2018-03-31T14:44:00.408Z,100213.00
2018-03-31T14:46:27.403Z,100219.36
2018-03-31T14:48:54.802Z,100211.52
2018-03-31T14:51:22.291Z,100209.53
2018-03-31T14:53:49.353Z,100211.19
2018-03-31T14:56:17.122Z,100207.42
2018-03-31T14:58:44.886Z,100205.02
2018-03-31T15:01:13.443Z,100194.34
2018-03-31T15:03:41.165Z,100194.27
2018-03-31T15:06:08.153Z,100191.59
2018-03-31T15:08:35.149Z,100189.61
2018-03-31T15:11:02.177Z,100185.30
2018-03-31T15:13:29.727Z,100182.41
2018-03-31T15:15:56.719Z,100186.13
2018-03-31T15:18:24.743Z,100185.30
2018-03-31T15:20:51.741Z,100180.87
2018-03-31T15:23:19.330Z,100181.41
2018-03-31T15:25:46.619Z,100180.22
2018-03-31T15:28:13.593Z,100179.86
2018-03-31T15:30:41.259Z,100181.95
2018-03-31T15:33:08.679Z,100178.79
2018-03-31T15:35:36.514Z,100186.79
2018-03-31T15:38:03.514Z,100182.20
2018-03-31T15:40:30.519Z,100185.27
2018-03-31T15:42:57.543Z,100183.72
2018-03-31T15:45:24.701Z,100180.23
2018-03-31T15:47:51.883Z,100180.58
2018-03-31T15:50:18.911Z,100182.72
2018-03-31T15:52:46.107Z,100185.45
2018-03-31T15:55:13.940Z,100180.44
2018-03-31T15:57:40.916Z,100181.20
2018-03-31T16:00:08.431Z,100176.84
2018-03-31T16:02:36.183Z,100178.07
2018-03-31T16:05:03.186Z,100183.78
2018-03-31T16:07:30.176Z,100182.84
2018-03-31T16:09:57.192Z,100186.67
2018-03-31T16:12:25.223Z,100181.53
2018-03-31T16:14:53.069Z,100182.12
2018-03-31T16:17:20.793Z,100180.92
2018-03-31T16:19:47.800Z,100179.45
2018-03-31T16:22:14.801Z,100170.98
2018-03-31T16:24:42.376Z,100162.77
2018-03-31T16:27:09.408Z,100170.11
2018-03-31T16:29:36.398Z,100164.99
2018-03-31T16:32:04.023Z,100167.58
2018-03-31T16:34:31.018Z,100164.28
2018-03-31T16:36:58.936Z,100166.88
2018-03-31T16:39:25.947Z,100163.59
2018-03-31T16:41:52.962Z,100168.08
2018-03-31T16:44:20.016Z,100165.51
2018-03-31T16:46:47.079Z,100168.91
2018-03-31T16:49:14.128Z,100172.95
2018-03-31T16:51:41.936Z,100174.28
2018-03-31T16:54:10.448Z,100184.30
2018-03-31T16:56:37.434Z,100178.68
2018-03-31T16:59:05.125Z,100187.02
2018-03-31T17:01:32.471Z,100185.06
2018-03-31T17:04:00.181Z,100179.81
2018-03-31T17:06:27.168Z,100180.70
2018-03-31T17:08:54.297Z,100177.08
2018-03-31T17:11:21.330Z,100182.05
2018-03-31T17:13:48.973Z,100193.52
2018-03-31T17:16:17.868Z,100192.72
2018-03-31T17:18:45.440Z,100190.16
2018-03-31T17:21:12.457Z,100192.30
2018-03-31T17:23:39.946Z,100197.41
2018-03-31T17:26:06.940Z,100194.09
2018-03-31T17:28:34.680Z,100194.38
2018-03-31T17:31:02.416Z,100197.41
2018-03-31T17:33:29.418Z,100199.94
2018-03-31T17:35:57.116Z,100200.26
2018-03-31T17:38:24.221Z,100200.63
2018-03-31T17:40:51.220Z,100201.36
2018-03-31T17:43:18.242Z,100207.27
2018-03-31T17:45:46.085Z,100205.55
2018-03-31T17:48:13.080Z,100211.41
2018-03-31T17:50:40.425Z,100213.75
2018-03-31T17:53:07.420Z,100212.73
2018-03-31T17:55:34.929Z,100221.76
2018-03-31T17:58:01.923Z,100218.52
2018-03-31T18:00:30.499Z,100215.30
2018-03-31T18:02:58.214Z,100219.30
2018-03-31T18:05:25.887Z,100219.27
2018-03-31T18:07:52.880Z,100216.81
2018-03-31T18:10:19.897Z,100214.05
2018-03-31T18:12:47.608Z,100217.06
2018-03-31T18:15:14.628Z,100216.75
2018-03-31T18:17:42.157Z,100217.16
2018-03-31T18:20:09.153Z,100212.59
2018-03-31T18:22:37.037Z,100219.23
2018-03-31T18:25:04.254Z,100215.98
2018-03-31T18:27:31.899Z,100220.56
2018-03-31T18:29:58.906Z,100218.22
2018-03-31T18:32:25.907Z,100217.69
2018-03-31T18:34:53.638Z,100218.81
2018-03-31T18:37:20.691Z,100209.91
2018-03-31T18:39:47.702Z,100218.11
2018-03-31T18:42:14.743Z,100223.87
2018-03-31T18:44:41.801Z,100217.09
2018-03-31T18:47:08.806Z,100213.68
2018-03-31T18:49:35.845Z,100210.23
2018-03-31T18:52:03.047Z,100212.34
2018-03-31T18:54:30.999Z,100211.72
2018-03-31T18:56:58.028Z,100205.38
2018-03-31T18:59:25.669Z,100208.23
2018-03-31T19:01:53.164Z,100207.63
2018-03-31T19:04:20.694Z,100214.85
2018-03-31T19:06:47.754Z,100213.27
2018-03-31T19:11:42.067Z,100206.23
2018-03-31T19:14:09.064Z,100208.19
2018-03-31T19:16:42.562Z,100202.03
2018-03-31T19:19:10.191Z,100208.57
2018-03-31T19:21:37.185Z,100201.05
2018-03-31T19:24:05.019Z,100197.39
2018-03-31T19:26:32.012Z,100201.22
2018-03-31T19:28:59.078Z,100207.67
2018-03-31T19:31:26.113Z,100205.29
2018-03-31T19:33:53.114Z,100207.38
2018-03-31T19:36:20.861Z,100207.11
2018-03-31T19:38:47.911Z,100196.93
2018-03-31T19:41:15.038Z,100200.92
2018-03-31T19:43:42.104Z,100200.66
2018-03-31T19:46:09.150Z,100202.74
2018-03-31T19:48:36.275Z,100193.39
2018-03-31T19:51:03.376Z,100193.78
2018-03-31T19:53:30.447Z,100184.02
2018-03-31T19:55:58.490Z,100180.77
2018-03-31T19:58:26.370Z,100189.02
2018-03-31T20:00:55.794Z,100181.44
2018-03-31T20:03:23.511Z,100179.58
2018-03-31T20:05:50.497Z,100191.36
2018-03-31T20:08:17.494Z,100188.31
2018-03-31T20:10:44.597Z,100176.73
2018-03-31T20:13:12.388Z,100177.29
2018-03-31T20:15:40.125Z,100176.95
2018-03-31T20:18:07.758Z,100177.30
2018-03-31T20:20:35.309Z,100181.35
2018-03-31T20:23:02.928Z,100184.54
2018-03-31T20:25:29.989Z,100175.05
2018-03-31T20:27:57.485Z,100177.55
2018-03-31T20:30:24.555Z,100170.08
2018-03-31T20:32:51.582Z,100173.50
2018-03-31T20:35:20.801Z,100168.86
2018-03-31T20:37:48.109Z,100167.83
2018-03-31T20:40:15.104Z,100161.05
2018-03-31T20:42:42.161Z,100165.62
2018-03-31T20:45:09.153Z,100168.08
2018-03-31T20:47:36.694Z,100157.27
2018-03-31T20:50:03.726Z,100155.34
2018-03-31T20:52:30.750Z,100160.95
2018-03-31T20:54:58.436Z,100155.34
2018-03-31T20:57:25.439Z,100156.31
2018-03-31T20:59:53.279Z,100159.01
2018-03-31T21:02:20.361Z,100154.72
2018-03-31T21:04:47.883Z,100153.89
2018-03-31T21:07:14.910Z,100158.35
2018-03-31T21:09:41.916Z,100157.17
2018-03-31T21:12:09.973Z,100152.61
2018-03-31T21:14:36.964Z,100152.33
2018-03-31T21:17:04.910Z,100153.71
2018-03-31T21:19:32.418Z,100154.61
2018-03-31T21:21:59.478Z,100154.20
2018-03-31T21:24:27.053Z,100146.38
2018-03-31T21:26:54.047Z,100149.77
2018-03-31T21:29:21.096Z,100151.43
2018-03-31T21:31:48.189Z,100163.55
2018-03-31T21:34:15.265Z,100159.94
2018-03-31T21:36:42.342Z,100159.73
2018-03-31T21:39:09.669Z,100162.95
2018-03-31T21:41:36.687Z,100162.47
2018-03-31T21:44:03.865Z,100160.67
2018-03-31T21:46:30.942Z,100156.59
2018-03-31T21:48:58.056Z,100160.73
2018-03-31T21:51:25.210Z,100160.81
2018-03-31T21:53:53.070Z,100161.43
2018-03-31T21:56:20.547Z,100168.35
2018-03-31T21:58:48.226Z,100171.33
2018-03-31T22:01:16.464Z,100175.14
2018-03-31T22:03:44.046Z,100168.73
2018-03-31T22:06:11.116Z,100170.33
2018-03-31T22:08:38.103Z,100166.27
2018-03-31T22:11:05.228Z,100172.72
2018-03-31T22:13:38.552Z,100160.25
2018-03-31T22:16:06.270Z,100163.78
2018-03-31T22:18:34.018Z,100157.17
2018-03-31T22:21:01.044Z,100162.64
2018-03-31T22:23:28.952Z,100159.05
2018-03-31T22:25:55.994Z,100157.87
2018-03-31T22:28:23.016Z,100151.95
2018-03-31T22:30:50.123Z,100140.52
2018-03-31T22:33:17.949Z,100138.66
2018-03-31T22:35:45.860Z,100139.27
2018-03-31T22:38:12.968Z,100134.73
2018-03-31T22:40:40.001Z,100135.63
2018-03-31T22:43:07.062Z,100133.48
2018-03-31T22:45:34.440Z,100126.32
2018-03-31T22:48:01.522Z,100135.17
2018-03-31T22:50:28.693Z,100129.09
2018-03-31T22:52:55.763Z,100133.03
2018-03-31T22:55:23.346Z,100133.86
2018-03-31T22:57:50.762Z,100128.25
2018-03-31T23:00:19.323Z,100133.44
2018-03-31T23:02:47.273Z,100127.48
2018-03-31T23:05:14.445Z,100122.23
2018-03-31T23:07:41.455Z,100122.71
2018-03-31T23:10:08.943Z,100119.97
2018-03-31T23:12:36.569Z,100119.56
2018-03-31T23:15:04.101Z,100113.74
2018-03-31T23:17:31.728Z,100109.11
2018-03-31T23:19:58.832Z,100106.61
2018-03-31T23:22:26.500Z,100112.77
2018-03-31T23:24:54.208Z,100109.03
2018-03-31T23:27:21.573Z,100100.03
2018-03-31T23:29:48.774Z,100097.51
2018-03-31T23:32:15.847Z,100099.79
2018-03-31T23:34:43.150Z,100097.98
2018-03-31T23:37:10.268Z,100098.41
2018-03-31T23:39:37.472Z,100090.31
2018-03-31T23:42:04.470Z,100085.13
2018-03-31T23:44:31.536Z,100079.94
2018-03-31T23:46:58.629Z,100077.94
2018-03-31T23:49:26.814Z,100076.48
2018-03-31T23:51:53.860Z,100082.47
2018-03-31T23:54:21.993Z,100085.38
2018-03-31T23:56:48.984Z,100088.14
2018-03-31T23:59:16.597Z,100094.37
